Time;durP1;ratioP1;P1;durP2;ratioP2;P2;SDS_P1;SDS_P2;PMS_P1;PMS_P2;Temp;Humidity;BMP_temperature;BMP_pressure;BME280_temperature;BME280_humidity;BME280_pressure;Samples;Min_cycle;Max_cycle;Signal;HPM_P1;HPM_P2
2023/11/13 00:03:27;;;;;;;40.80;23.17;;;;;;;;;;10375820;28;20495;-86
2023/11/13 00:08:32;;;;;;;40.25;23.45;;;;;;;;;;10372935;28;20520;-87
2023/11/13 00:13:34;;;;;;;37.77;22.93;;;;;;;;;;10367004;28;20510;-85
2023/11/13 00:18:37;;;;;;;34.47;22.23;;;;;;;;;;10373121;28;20491;-86
2023/11/13 00:23:42;;;;;;;37.55;21.48;;;;;;;;;;10368595;28;20434;-86
2023/11/13 00:28:45;;;;;;;33.25;20.17;;;;;;;;;;10385660;28;20807;-86
2023/11/13 00:33:48;;;;;;;30.17;18.90;;;;;;;;;;10378716;28;20924;-86
2023/11/13 00:38:52;;;;;;;29.23;18.88;;;;;;;;;;10368450;28;20467;-86
2023/11/13 00:43:54;;;;;;;29.77;18.87;;;;;;;;;;10376383;28;20463;-86
2023/11/13 00:48:57;;;;;;;27.75;18.77;;;;;;;;;;10366066;28;20527;-84
2023/11/13 00:54:00;;;;;;;29.23;18.47;;;;;;;;;;10362903;28;20516;-86
2023/11/13 00:59:03;;;;;;;25.88;16.45;;;;;;;;;;10371058;28;20500;-86
2023/11/13 01:04:05;;;;;;;27.73;17.53;;;;;;;;;;10372371;28;20522;-86
2023/11/13 01:09:11;;;;;;;24.17;15.90;;;;;;;;;;10370536;28;20539;-86
2023/11/13 01:14:14;;;;;;;24.27;16.02;;;;;;;;;;10375903;28;20543;-85
2023/11/13 01:44:18;;;;;;;22.87;15.17;;;;;;;;;;10400632;28;20439;-85
2023/11/13 01:49:22;;;;;;;21.70;14.32;;;;;;;;;;10384008;28;20431;-86
2023/11/13 01:54:24;;;;;;;21.23;14.03;;;;;;;;;;10377770;28;20476;-86
2023/11/13 01:59:28;;;;;;;22.85;15.65;;;;;;;;;;10391217;28;20516;-85
2023/11/13 02:04:31;;;;;;;23.70;14.50;;;;;;;;;;10388665;28;20407;-86
2023/11/13 02:09:34;;;;;;;20.13;14.15;;;;;;;;;;10386946;28;20514;-86
2023/11/13 02:14:37;;;;;;;25.87;16.60;;;;;;;;;;10386274;28;20500;-86
2023/11/13 02:19:42;;;;;;;25.55;16.60;;;;;;;;;;10406460;28;20428;-86
2023/11/13 02:24:46;;;;;;;24.92;16.13;;;;;;;;;;10398772;28;20510;-85
2023/11/13 02:29:49;;;;;;;25.47;16.70;;;;;;;;;;10390546;28;20434;-86
2023/11/13 02:34:51;;;;;;;26.50;16.63;;;;;;;;;;10387390;28;20891;-86
2023/11/13 02:39:55;;;;;;;23.33;15.13;;;;;;;;;;10379030;28;20413;-86
2023/11/13 02:44:57;;;;;;;21.17;14.63;;;;;;;;;;10379110;28;20490;-86
2023/11/13 02:50:00;;;;;;;21.57;14.03;;;;;;;;;;10378521;28;20466;-86
2023/11/13 02:55:05;;;;;;;23.30;14.05;;;;;;;;;;10379108;28;21032;-86
2023/11/13 03:00:09;;;;;;;19.08;12.93;;;;;;;;;;10362113;28;20551;-86
2023/11/13 03:05:12;;;;;;;21.07;13.37;;;;;;;;;;10385351;28;20996;-86
2023/11/13 03:10:16;;;;;;;19.75;13.23;;;;;;;;;;10383500;28;20587;-86
2023/11/13 03:15:18;;;;;;;20.20;13.60;;;;;;;;;;10384163;28;20471;-86
2023/11/13 03:20:20;;;;;;;18.58;13.02;;;;;;;;;;10394185;28;20411;-85
2023/11/13 03:25:24;;;;;;;20.67;13.43;;;;;;;;;;10387800;28;20467;-86
2023/11/13 03:30:27;;;;;;;20.02;12.55;;;;;;;;;;10382617;28;20581;-86
2023/11/13 03:35:30;;;;;;;21.92;13.88;;;;;;;;;;10382154;28;20482;-86
2023/11/13 03:40:33;;;;;;;32.27;19.87;;;;;;;;;;10380502;28;20472;-86
2023/11/13 03:45:36;;;;;;;26.40;17.00;;;;;;;;;;10382085;28;20465;-85
2023/11/13 03:50:38;;;;;;;25.20;15.40;;;;;;;;;;10375477;28;20560;-86
2023/11/13 03:55:42;;;;;;;19.30;11.02;;;;;;;;;;10377926;28;20438;-85
2023/11/13 04:00:44;;;;;;;11.38;8.00;;;;;;;;;;10377259;28;20409;-86
2023/11/13 04:05:47;;;;;;;12.35;8.93;;;;;;;;;;10379995;28;20416;-86
2023/11/13 04:10:51;;;;;;;14.10;9.65;;;;;;;;;;10385689;28;20508;-86
2023/11/13 04:15:53;;;;;;;18.60;11.77;;;;;;;;;;10395873;28;20450;-86
2023/11/13 04:20:56;;;;;;;15.43;9.95;;;;;;;;;;10381390;28;20464;-86
2023/11/13 04:26:00;;;;;;;17.35;11.00;;;;;;;;;;10380322;28;20874;-86
2023/11/13 04:31:02;;;;;;;15.07;10.37;;;;;;;;;;10379260;28;20419;-86
2023/11/13 04:36:05;;;;;;;15.88;11.40;;;;;;;;;;10378879;28;20818;-85
2023/11/13 04:41:15;;;;;;;19.90;12.95;;;;;;;;;;10383457;28;20879;-86
2023/11/13 04:46:17;;;;;;;20.20;12.15;;;;;;;;;;10383129;28;20787;-85
2023/11/13 04:51:19;;;;;;;16.25;11.15;;;;;;;;;;10385188;28;20517;-84
2023/11/13 04:56:23;;;;;;;17.70;10.17;;;;;;;;;;10383426;28;20498;-85
2023/11/13 05:01:25;;;;;;;14.88;9.18;;;;;;;;;;10386415;28;20968;-86
2023/11/13 05:06:28;;;;;;;15.38;9.50;;;;;;;;;;10373653;28;20972;-85
2023/11/13 05:11:32;;;;;;;13.30;9.02;;;;;;;;;;10390260;28;20479;-85
2023/11/13 05:16:34;;;;;;;13.87;9.00;;;;;;;;;;10378319;28;20477;-85
2023/11/13 05:21:37;;;;;;;12.75;8.35;;;;;;;;;;10385446;28;20437;-85
2023/11/13 05:26:41;;;;;;;12.97;8.57;;;;;;;;;;10376837;28;20892;-85
2023/11/13 05:31:44;;;;;;;12.07;8.30;;;;;;;;;;10383983;28;20485;-86
2023/11/13 05:36:47;;;;;;;13.20;8.33;;;;;;;;;;10390458;28;20459;-86
2023/11/13 05:41:51;;;;;;;11.80;7.30;;;;;;;;;;10392125;28;20407;-86
2023/11/13 05:46:54;;;;;;;10.45;6.97;;;;;;;;;;10411446;28;20403;-86
2023/11/13 05:51:56;;;;;;;10.40;6.17;;;;;;;;;;10428634;28;20433;-86
2023/11/13 05:57:00;;;;;;;13.55;8.02;;;;;;;;;;10428792;28;20960;-85
2023/11/13 06:02:02;;;;;;;17.90;11.13;;;;;;;;;;10425236;28;20393;-85
2023/11/13 06:07:06;;;;;;;19.42;11.70;;;;;;;;;;10427054;28;20464;-87
2023/11/13 06:12:10;;;;;;;16.33;11.52;;;;;;;;;;10439944;28;20427;-86
2023/11/13 06:17:12;;;;;;;13.05;8.60;;;;;;;;;;10427923;28;20461;-86
2023/11/13 06:22:15;;;;;;;12.23;8.75;;;;;;;;;;10431087;28;20417;-86
2023/11/13 06:27:19;;;;;;;13.88;8.20;;;;;;;;;;10431926;28;20467;-86
2023/11/13 06:32:21;;;;;;;9.45;6.90;;;;;;;;;;10426786;28;20417;-85
2023/11/13 06:37:24;;;;;;;13.83;7.37;;;;;;;;;;10423848;28;20432;-85
2023/11/13 06:42:28;;;;;;;11.85;6.15;;;;;;;;;;10418683;28;20499;-84
2023/11/13 06:47:30;;;;;;;11.23;6.90;;;;;;;;;;10399613;28;20936;-86
2023/11/13 06:52:33;;;;;;;11.45;7.45;;;;;;;;;;10382547;28;20488;-85
2023/11/13 06:57:37;;;;;;;12.48;6.90;;;;;;;;;;10386093;28;20835;-86
2023/11/13 07:02:41;;;;;;;8.23;5.30;;;;;;;;;;10384890;28;20415;-86
2023/11/13 07:07:44;;;;;;;6.03;4.43;;;;;;;;;;10394481;28;20535;-85
2023/11/13 07:12:49;;;;;;;7.75;5.05;;;;;;;;;;10382593;28;20407;-86
2023/11/13 07:17:51;;;;;;;8.25;5.57;;;;;;;;;;10383125;28;20765;-86
2023/11/13 07:22:54;;;;;;;8.20;4.97;;;;;;;;;;10381226;28;20417;-86
2023/11/13 07:27:58;;;;;;;10.63;4.97;;;;;;;;;;10381310;28;20586;-86
2023/11/13 07:33:01;;;;;;;8.33;5.03;;;;;;;;;;10383287;28;20438;-86
2023/11/13 07:38:07;;;;;;;7.15;4.75;;;;;;;;;;10383309;28;20500;-86
2023/11/13 07:43:11;;;;;;;7.43;4.80;;;;;;;;;;10384178;28;20442;-86
2023/11/13 07:48:14;;;;;;;6.60;4.78;;;;;;;;;;10430366;28;20883;-85
2023/11/13 07:53:16;;;;;;;7.93;5.00;;;;;;;;;;10422147;28;20407;-86
2023/11/13 07:58:20;;;;;;;8.47;4.23;;;;;;;;;;10420962;28;20406;-86
2023/11/13 08:03:23;;;;;;;7.55;4.75;;;;;;;;;;10418913;28;20418;-86
2023/11/13 08:08:25;;;;;;;6.70;4.70;;;;;;;;;;10419640;28;20951;-86
2023/11/13 08:13:29;;;;;;;7.87;5.10;;;;;;;;;;10418746;28;20658;-85
2023/11/13 08:18:31;;;;;;;28.92;15.63;;;;;;;;;;10419879;28;20767;-85
2023/11/13 08:23:34;;;;;;;9.47;5.37;;;;;;;;;;10424403;28;20412;-86
2023/11/13 08:28:38;;;;;;;10.30;5.50;;;;;;;;;;10423740;28;20453;-86
2023/11/13 08:33:41;;;;;;;8.00;5.53;;;;;;;;;;10422009;28;20919;-86
2023/11/13 08:38:45;;;;;;;8.30;5.20;;;;;;;;;;10420633;28;20433;-86
2023/11/13 08:43:48;;;;;;;13.65;8.18;;;;;;;;;;10427889;28;20441;-86
2023/11/13 08:48:51;;;;;;;8.90;5.38;;;;;;;;;;10420264;28;20852;-86
2023/11/13 08:53:59;;;;;;;12.60;7.68;;;;;;;;;;10422831;28;20765;-87
2023/11/13 08:59:03;;;;;;;9.83;5.70;;;;;;;;;;10423018;28;20435;-86
2023/11/13 09:04:06;;;;;;;12.97;7.07;;;;;;;;;;10422211;28;20487;-86
2023/11/13 09:09:12;;;;;;;9.48;5.30;;;;;;;;;;10416280;28;20494;-86
2023/11/13 09:14:21;;;;;;;7.78;5.20;;;;;;;;;;10455985;23;21032;-80
2023/11/13 09:19:25;;;;;;;7.18;5.35;;;;;;;;;;10462226;28;20435;-79
2023/11/13 09:24:28;;;;;;;8.15;5.43;;;;;;;;;;10464914;28;20940;-80
2023/11/13 09:29:34;;;;;;;7.03;4.72;;;;;;;;;;10458664;28;20957;-80
2023/11/13 09:34:37;;;;;;;7.47;4.78;;;;;;;;;;10462806;28;20407;-80
2023/11/13 09:39:42;;;;;;;6.03;4.28;;;;;;;;;;10470233;28;20414;-80
2023/11/13 09:44:48;;;;;;;5.80;4.00;;;;;;;;;;10461213;28;20460;-79
2023/11/13 09:49:56;;;;;;;7.72;4.07;;;;;;;;;;10460207;28;20906;-80
2023/11/13 09:54:58;;;;;;;5.38;3.70;;;;;;;;;;10460290;28;20411;-80
2023/11/13 10:00:03;;;;;;;5.60;3.73;;;;;;;;;;10460103;28;20403;-80
2023/11/13 10:05:05;;;;;;;5.75;4.55;;;;;;;;;;10458597;28;20485;-80
2023/11/13 10:10:13;;;;;;;5.35;3.75;;;;;;;;;;10458852;28;20504;-80
2023/11/13 10:15:24;;;;;;;5.10;3.83;;;;;;;;;;10456136;28;20467;-80
2023/11/13 10:20:27;;;;;;;6.32;4.22;;;;;;;;;;10465627;28;20891;-80
2023/11/13 10:25:44;;;;;;;8.00;4.80;;;;;;;;;;10469916;28;20469;-80
2023/11/13 10:30:58;;;;;;;6.90;4.75;;;;;;;;;;10467329;28;20451;-79
2023/11/13 10:36:04;;;;;;;8.35;5.43;;;;;;;;;;10467738;28;20400;-80
2023/11/13 10:41:07;;;;;;;8.40;5.47;;;;;;;;;;10467774;28;20400;-80
2023/11/13 10:46:12;;;;;;;9.43;6.13;;;;;;;;;;10467392;28;20509;-79
2023/11/13 10:51:14;;;;;;;9.93;6.13;;;;;;;;;;10470101;28;20449;-79
2023/11/13 10:56:17;;;;;;;8.80;5.55;;;;;;;;;;10463526;28;20513;-80
2023/11/13 11:01:28;;;;;;;8.77;5.70;;;;;;;;;;10467745;28;20514;-80
2023/11/13 11:06:32;;;;;;;8.35;5.65;;;;;;;;;;10473989;28;20466;-80
2023/11/13 11:11:35;;;;;;;9.15;5.28;;;;;;;;;;10465512;28;20445;-79
2023/11/13 11:16:42;;;;;;;9.27;5.97;;;;;;;;;;10463699;28;20883;-80
2023/11/13 11:21:50;;;;;;;10.87;5.93;;;;;;;;;;10461559;28;20451;-79
2023/11/13 11:26:54;;;;;;;11.50;5.97;;;;;;;;;;10463923;28;20519;-79
2023/11/13 11:31:59;;;;;;;9.60;6.15;;;;;;;;;;10464191;28;20847;-80
2023/11/13 11:37:03;;;;;;;12.27;7.10;;;;;;;;;;10462667;28;20700;-80
2023/11/13 11:42:16;;;;;;;9.73;6.57;;;;;;;;;;10456813;28;20435;-80
2023/11/13 11:47:24;;;;;;;10.30;7.20;;;;;;;;;;10469499;28;20454;-80
2023/11/13 11:52:50;;;;;;;12.90;8.98;;;;;;;;;;10457520;28;20518;-80
2023/11/13 11:57:53;;;;;;;13.55;7.82;;;;;;;;;;10469488;28;20450;-81
2023/11/13 12:02:59;;;;;;;14.27;9.30;;;;;;;;;;10460485;28;20432;-80
2023/11/13 12:08:02;;;;;;;17.07;9.87;;;;;;;;;;10462912;28;20911;-80
2023/11/13 12:13:06;;;;;;;14.68;9.38;;;;;;;;;;10463411;28;20524;-80
2023/11/13 12:18:10;;;;;;;16.25;9.80;;;;;;;;;;10456788;28;20984;-80
2023/11/13 12:23:13;;;;;;;15.40;9.25;;;;;;;;;;10463910;28;20917;-80
2023/11/13 12:28:15;;;;;;;15.02;9.40;;;;;;;;;;10457989;28;20509;-80
2023/11/13 12:33:19;;;;;;;14.57;9.10;;;;;;;;;;10461361;28;20453;-81
2023/11/13 12:38:22;;;;;;;14.77;9.47;;;;;;;;;;10466678;28;20447;-81
2023/11/13 12:43:27;;;;;;;15.93;11.10;;;;;;;;;;10455432;28;20535;-80
2023/11/13 12:48:31;;;;;;;15.82;9.98;;;;;;;;;;10461531;28;20868;-80
2023/11/13 12:53:35;;;;;;;15.20;9.23;;;;;;;;;;10462389;28;20459;-81
2023/11/13 12:58:37;;;;;;;21.43;10.87;;;;;;;;;;10459127;28;20451;-80
2023/11/13 13:03:41;;;;;;;16.40;9.68;;;;;;;;;;10454343;28;20988;-80
2023/11/13 13:08:43;;;;;;;15.23;9.35;;;;;;;;;;10458008;28;20463;-80
2023/11/13 13:13:46;;;;;;;17.50;11.02;;;;;;;;;;10459630;28;20457;-80
2023/11/13 13:18:50;;;;;;;16.42;10.38;;;;;;;;;;10461606;28;20396;-80
2023/11/13 13:23:54;;;;;;;14.98;10.98;;;;;;;;;;10464420;28;20398;-80
2023/11/13 13:28:58;;;;;;;16.85;10.35;;;;;;;;;;10468897;28;20429;-80
2023/11/13 13:34:02;;;;;;;17.23;10.77;;;;;;;;;;10465887;28;20459;-80
2023/11/13 13:39:07;;;;;;;17.07;10.80;;;;;;;;;;10462822;28;20408;-80
2023/11/13 13:44:12;;;;;;;18.25;11.43;;;;;;;;;;10464663;28;20467;-82
2023/11/13 13:49:16;;;;;;;21.23;12.57;;;;;;;;;;10460094;28;20434;-82
2023/11/13 13:54:19;;;;;;;17.70;11.80;;;;;;;;;;10461814;28;20458;-82
2023/11/13 13:59:24;;;;;;;45.65;23.65;;;;;;;;;;10469537;28;20421;-80
2023/11/13 14:04:29;;;;;;;24.67;15.95;;;;;;;;;;10473904;28;20884;-82
2023/11/13 14:09:33;;;;;;;24.25;13.50;;;;;;;;;;10465466;28;20429;-82
2023/11/13 14:14:36;;;;;;;22.63;14.87;;;;;;;;;;10469184;28;20728;-82
2023/11/13 14:19:40;;;;;;;25.92;15.27;;;;;;;;;;10469498;28;20435;-79
2023/11/13 14:24:42;;;;;;;24.20;15.68;;;;;;;;;;10465529;28;20499;-79
2023/11/13 14:29:44;;;;;;;23.67;15.93;;;;;;;;;;10468744;28;20487;-80
2023/11/13 14:34:48;;;;;;;25.27;15.10;;;;;;;;;;10473565;28;20845;-79
2023/11/13 14:39:51;;;;;;;24.38;15.68;;;;;;;;;;10464224;28;20747;-82
2023/11/13 14:44:53;;;;;;;24.48;15.75;;;;;;;;;;10458120;28;20474;-79
2023/11/13 14:49:57;;;;;;;31.00;17.67;;;;;;;;;;10457274;28;20430;-80
2023/11/13 14:54:59;;;;;;;27.10;17.02;;;;;;;;;;10467492;28;20399;-82
2023/11/13 15:00:05;;;;;;;28.07;16.87;;;;;;;;;;10468648;28;20504;-81
2023/11/13 15:05:09;;;;;;;34.97;17.70;;;;;;;;;;10463976;28;20403;-82
2023/11/13 15:10:12;;;;;;;30.33;18.27;;;;;;;;;;10464363;28;20408;-82
2023/11/13 15:15:15;;;;;;;30.08;17.95;;;;;;;;;;10470167;28;20485;-82
2023/11/13 15:20:20;;;;;;;32.00;18.95;;;;;;;;;;10464709;28;20414;-82
2023/11/13 15:25:24;;;;;;;30.57;18.87;;;;;;;;;;10464642;28;20436;-82
2023/11/13 15:30:27;;;;;;;32.78;18.95;;;;;;;;;;10459110;28;20443;-83
2023/11/13 15:35:32;;;;;;;32.47;19.05;;;;;;;;;;10466458;28;20438;-82
2023/11/13 15:40:34;;;;;;;38.25;19.63;;;;;;;;;;10462366;28;20408;-82
2023/11/13 15:45:37;;;;;;;34.83;20.10;;;;;;;;;;10454266;28;20876;-82
2023/11/13 15:50:41;;;;;;;37.17;21.10;;;;;;;;;;10453867;28;20451;-82
2023/11/13 15:55:44;;;;;;;37.83;22.57;;;;;;;;;;10457260;28;20431;-81
2023/11/13 16:00:46;;;;;;;40.47;23.63;;;;;;;;;;10454351;28;20903;-81
2023/11/13 16:05:54;;;;;;;43.70;24.50;;;;;;;;;;10448880;28;20462;-80
2023/11/13 16:10:56;;;;;;;39.60;22.67;;;;;;;;;;10461520;28;20415;-81
2023/11/13 16:15:58;;;;;;;38.03;22.52;;;;;;;;;;10459240;28;20410;-80
2023/11/13 16:21:03;;;;;;;34.97;21.55;;;;;;;;;;10479309;28;20998;-80
2023/11/13 16:26:06;;;;;;;39.70;22.35;;;;;;;;;;10477795;28;20951;-80
2023/11/13 16:31:09;;;;;;;38.38;21.50;;;;;;;;;;10467144;28;20457;-81
2023/11/13 16:36:13;;;;;;;39.42;23.13;;;;;;;;;;10472464;28;20457;-80
2023/11/13 16:41:16;;;;;;;52.25;27.80;;;;;;;;;;10469278;28;20462;-80
2023/11/13 16:46:18;;;;;;;44.22;26.50;;;;;;;;;;10469822;28;20775;-80
2023/11/13 16:51:22;;;;;;;43.47;25.83;;;;;;;;;;10473167;28;20508;-81
2023/11/13 16:56:25;;;;;;;37.67;22.25;;;;;;;;;;10464796;28;20909;-80
2023/11/13 17:01:27;;;;;;;37.58;24.10;;;;;;;;;;10455995;28;20457;-80
2023/11/13 17:06:31;;;;;;;52.00;28.50;;;;;;;;;;10463637;28;20434;-80
2023/11/13 17:11:34;;;;;;;52.27;29.37;;;;;;;;;;10462798;28;20503;-80
2023/11/13 17:16:37;;;;;;;48.13;27.35;;;;;;;;;;10459721;28;20917;-80
2023/11/13 17:21:40;;;;;;;51.00;29.67;;;;;;;;;;10459346;28;20439;-80
2023/11/13 17:26:44;;;;;;;56.75;32.88;;;;;;;;;;10471481;28;20449;-80
2023/11/13 17:31:46;;;;;;;54.03;32.13;;;;;;;;;;10462999;28;20493;-80
2023/11/13 17:36:50;;;;;;;65.15;38.42;;;;;;;;;;10460853;28;20472;-80
2023/11/13 17:41:52;;;;;;;49.60;28.40;;;;;;;;;;10465343;28;20454;-80
2023/11/13 17:46:54;;;;;;;47.80;27.10;;;;;;;;;;10464019;28;20929;-82
2023/11/13 17:51:58;;;;;;;46.03;26.93;;;;;;;;;;10456447;28;21006;-80
2023/11/13 17:57:01;;;;;;;50.47;27.38;;;;;;;;;;10449075;28;20508;-79
2023/11/13 18:02:03;;;;;;;48.95;26.70;;;;;;;;;;10457463;28;20505;-79
2023/11/13 18:07:07;;;;;;;46.40;26.88;;;;;;;;;;10466508;28;20446;-80
2023/11/13 18:12:09;;;;;;;44.78;26.13;;;;;;;;;;10452628;28;20458;-79
2023/11/13 18:17:12;;;;;;;43.47;25.42;;;;;;;;;;10459637;28;20516;-79
2023/11/13 18:22:16;;;;;;;45.10;24.23;;;;;;;;;;10452496;28;20480;-80
2023/11/13 18:27:18;;;;;;;44.85;24.83;;;;;;;;;;10451971;28;20504;-80
2023/11/13 18:32:20;;;;;;;38.22;23.27;;;;;;;;;;10454396;28;20937;-79
2023/11/13 18:37:26;;;;;;;40.17;24.30;;;;;;;;;;10441505;28;20474;-79
2023/11/13 18:42:29;;;;;;;39.63;24.47;;;;;;;;;;10453262;28;20988;-79
2023/11/13 18:47:32;;;;;;;42.13;24.37;;;;;;;;;;10448180;28;20832;-79
2023/11/13 18:52:35;;;;;;;42.25;24.52;;;;;;;;;;10451358;28;20537;-79
2023/11/13 18:57:38;;;;;;;42.87;23.83;;;;;;;;;;10452269;28;20499;-80
2023/11/13 19:02:40;;;;;;;43.22;25.73;;;;;;;;;;10447990;28;20439;-79
2023/11/13 19:07:44;;;;;;;40.67;24.77;;;;;;;;;;10452283;28;20548;-79
2023/11/13 19:12:46;;;;;;;43.87;25.67;;;;;;;;;;10462243;28;20515;-79
2023/11/13 19:17:49;;;;;;;39.97;25.20;;;;;;;;;;10460410;28;20441;-79
2023/11/13 19:22:54;;;;;;;43.72;28.13;;;;;;;;;;10456648;28;21005;-79
2023/11/13 19:27:57;;;;;;;47.70;29.00;;;;;;;;;;10453186;28;20889;-80
2023/11/13 19:33:00;;;;;;;50.08;30.02;;;;;;;;;;10460933;28;20509;-79
2023/11/13 19:38:05;;;;;;;47.15;27.98;;;;;;;;;;10461154;28;20547;-80
2023/11/13 19:43:08;;;;;;;47.22;27.88;;;;;;;;;;10468941;28;20435;-79
2023/11/13 19:48:12;;;;;;;47.30;28.37;;;;;;;;;;10474025;28;21003;-79
2023/11/13 19:53:16;;;;;;;49.65;28.13;;;;;;;;;;10453238;28;21070;-80
2023/11/13 19:58:19;;;;;;;53.40;29.40;;;;;;;;;;10455391;28;20434;-79
2023/11/13 20:03:22;;;;;;;48.58;29.38;;;;;;;;;;10449959;28;20442;-79
2023/11/13 20:08:26;;;;;;;50.97;29.07;;;;;;;;;;10453846;28;20521;-79
2023/11/13 20:13:29;;;;;;;48.30;28.80;;;;;;;;;;10453159;28;20566;-79
2023/11/13 20:18:31;;;;;;;49.47;29.38;;;;;;;;;;10447479;28;20497;-79
2023/11/13 20:23:35;;;;;;;51.00;30.63;;;;;;;;;;10444378;28;20455;-79
2023/11/13 20:28:37;;;;;;;46.15;28.40;;;;;;;;;;10450276;28;20447;-80
2023/11/13 20:33:40;;;;;;;49.90;30.55;;;;;;;;;;10455810;28;20453;-79
2023/11/13 20:38:43;;;;;;;49.85;29.17;;;;;;;;;;10458731;28;20756;-79
2023/11/13 20:43:46;;;;;;;47.70;28.50;;;;;;;;;;10449464;28;20441;-79
2023/11/13 20:48:48;;;;;;;49.40;28.58;;;;;;;;;;10452194;28;20509;-78
2023/11/13 20:53:53;;;;;;;52.28;28.60;;;;;;;;;;10448735;28;20461;-79
2023/11/13 20:58:56;;;;;;;47.58;27.33;;;;;;;;;;10457642;28;20438;-80
2023/11/13 21:03:59;;;;;;;47.28;28.05;;;;;;;;;;10471689;28;20525;-81
2023/11/13 21:09:06;;;;;;;45.90;28.13;;;;;;;;;;10455357;28;20446;-80
2023/11/13 21:14:09;;;;;;;45.53;27.55;;;;;;;;;;10453095;28;20468;-80
2023/11/13 21:19:13;;;;;;;47.03;27.30;;;;;;;;;;10459135;28;20541;-81
2023/11/13 21:24:17;;;;;;;48.60;27.30;;;;;;;;;;10450754;28;20502;-81
2023/11/13 21:29:20;;;;;;;44.35;26.23;;;;;;;;;;10447218;28;20440;-81
2023/11/13 21:34:22;;;;;;;39.75;25.60;;;;;;;;;;10448970;28;20905;-79
2023/11/13 21:39:28;;;;;;;40.08;24.33;;;;;;;;;;10457508;28;20492;-80
2023/11/13 21:44:30;;;;;;;35.30;23.55;;;;;;;;;;10451103;28;20538;-80
2023/11/13 21:49:36;;;;;;;41.55;21.40;;;;;;;;;;10460124;28;20442;-80
2023/11/13 21:54:39;;;;;;;31.42;20.60;;;;;;;;;;10456211;28;20457;-79
2023/11/13 21:59:44;;;;;;;31.30;21.07;;;;;;;;;;10458894;28;20464;-80
2023/11/13 22:04:46;;;;;;;33.45;20.50;;;;;;;;;;10455698;28;20473;-80
2023/11/13 22:09:50;;;;;;;35.95;20.48;;;;;;;;;;10463763;28;20437;-81
2023/11/13 22:14:52;;;;;;;31.03;19.80;;;;;;;;;;10467250;28;21661;-80
2023/11/13 22:19:55;;;;;;;33.25;20.05;;;;;;;;;;10461189;28;20984;-80
2023/11/13 22:24:58;;;;;;;33.22;20.60;;;;;;;;;;10467184;28;20446;-80
2023/11/13 22:30:01;;;;;;;36.00;21.67;;;;;;;;;;10461132;28;20406;-81
2023/11/13 22:35:03;;;;;;;33.22;20.70;;;;;;;;;;10477879;28;20424;-80
2023/11/13 22:40:09;;;;;;;32.47;19.38;;;;;;;;;;10476883;28;20503;-80
2023/11/13 22:45:12;;;;;;;30.90;19.58;;;;;;;;;;10463226;28;20965;-80
2023/11/13 22:50:16;;;;;;;35.93;21.40;;;;;;;;;;10468668;28;20443;-80
2023/11/13 22:55:20;;;;;;;35.30;21.33;;;;;;;;;;10464555;28;20459;-80
2023/11/13 23:00:25;;;;;;;32.93;19.83;;;;;;;;;;10463058;28;20495;-80
2023/11/13 23:05:28;;;;;;;32.17;19.93;;;;;;;;;;10462954;28;20433;-80
2023/11/13 23:10:32;;;;;;;33.33;19.52;;;;;;;;;;10467622;28;20434;-80
2023/11/13 23:15:34;;;;;;;31.27;19.58;;;;;;;;;;10465999;28;20467;-79
2023/11/13 23:20:37;;;;;;;35.25;19.67;;;;;;;;;;10462643;28;20434;-80
2023/11/13 23:25:40;;;;;;;33.03;19.70;;;;;;;;;;10468802;28;20394;-79
2023/11/13 23:30:44;;;;;;;30.00;18.15;;;;;;;;;;10463872;28;20429;-79
2023/11/13 23:35:46;;;;;;;31.42;18.35;;;;;;;;;;10465668;28;20993;-80
2023/11/13 23:40:50;;;;;;;28.03;17.43;;;;;;;;;;10471881;28;20471;-80
2023/11/13 23:45:52;;;;;;;28.00;16.90;;;;;;;;;;10465278;28;20955;-79
2023/11/13 23:50:57;;;;;;;27.80;17.20;;;;;;;;;;10464404;28;20537;-79
2023/11/13 23:56:01;;;;;;;28.25;17.13;;;;;;;;;;10471185;28;20484;-80
